sensor_id;sensor_type;location;lat;lon;timestamp;P1;durP1;ratioP1;P2;durP2;ratioP2
21661;SDS011;10992;48.170;8.596;2022-12-10T00:01:14;47.80;;;27.48;;
21661;SDS011;10992;48.170;8.596;2022-12-10T00:03:43;51.63;;;30.08;;
21661;SDS011;10992;48.170;8.596;2022-12-10T00:06:12;51.90;;;28.55;;
21661;SDS011;10992;48.170;8.596;2022-12-10T00:08:41;50.55;;;27.95;;
21661;SDS011;10992;48.170;8.596;2022-12-10T00:11:09;49.42;;;28.08;;
21661;SDS011;10992;48.170;8.596;2022-12-10T00:13:38;50.33;;;28.55;;
21661;SDS011;10992;48.170;8.596;2022-12-10T00:16:06;47.22;;;27.88;;
21661;SDS011;10992;48.170;8.596;2022-12-10T00:18:35;50.85;;;27.90;;
21661;SDS011;10992;48.170;8.596;2022-12-10T00:21:04;53.53;;;30.05;;
21661;SDS011;10992;48.170;8.596;2022-12-10T00:23:33;52.72;;;29.52;;
21661;SDS011;10992;48.170;8.596;2022-12-10T00:26:05;53.22;;;28.30;;
21661;SDS011;10992;48.170;8.596;2022-12-10T00:28:33;51.78;;;29.55;;
21661;SDS011;10992;48.170;8.596;2022-12-10T00:31:10;50.60;;;28.77;;
21661;SDS011;10992;48.170;8.596;2022-12-10T00:33:39;52.65;;;28.55;;
21661;SDS011;10992;48.170;8.596;2022-12-10T00:36:08;53.78;;;28.58;;
21661;SDS011;10992;48.170;8.596;2022-12-10T00:38:41;47.35;;;27.30;;
21661;SDS011;10992;48.170;8.596;2022-12-10T00:41:10;51.67;;;29.00;;
21661;SDS011;10992;48.170;8.596;2022-12-10T00:43:38;55.92;;;31.15;;
21661;SDS011;10992;48.170;8.596;2022-12-10T00:46:05;64.00;;;31.65;;
21661;SDS011;10992;48.170;8.596;2022-12-10T00:48:33;58.78;;;29.73;;
21661;SDS011;10992;48.170;8.596;2022-12-10T00:51:02;58.58;;;30.45;;
21661;SDS011;10992;48.170;8.596;2022-12-10T00:53:37;58.20;;;29.95;;
21661;SDS011;10992;48.170;8.596;2022-12-10T00:56:05;51.97;;;28.65;;
21661;SDS011;10992;48.170;8.596;2022-12-10T00:58:33;52.50;;;29.17;;
21661;SDS011;10992;48.170;8.596;2022-12-10T01:01:12;52.85;;;28.42;;
21661;SDS011;10992;48.170;8.596;2022-12-10T01:03:51;52.40;;;28.67;;
21661;SDS011;10992;48.170;8.596;2022-12-10T01:06:23;50.67;;;28.67;;
21661;SDS011;10992;48.170;8.596;2022-12-10T01:08:52;48.65;;;29.42;;
21661;SDS011;10992;48.170;8.596;2022-12-10T01:11:22;48.47;;;27.88;;
21661;SDS011;10992;48.170;8.596;2022-12-10T01:13:52;51.72;;;31.38;;
21661;SDS011;10992;48.170;8.596;2022-12-10T01:16:20;47.75;;;28.77;;
21661;SDS011;10992;48.170;8.596;2022-12-10T01:18:51;47.20;;;30.50;;
21661;SDS011;10992;48.170;8.596;2022-12-10T01:21:20;47.47;;;30.42;;
21661;SDS011;10992;48.170;8.596;2022-12-10T01:23:48;48.47;;;28.55;;
21661;SDS011;10992;48.170;8.596;2022-12-10T01:26:22;48.67;;;28.88;;
21661;SDS011;10992;48.170;8.596;2022-12-10T01:28:50;46.25;;;27.45;;
21661;SDS011;10992;48.170;8.596;2022-12-10T01:31:19;51.72;;;29.75;;
21661;SDS011;10992;48.170;8.596;2022-12-10T01:33:48;51.53;;;29.88;;
21661;SDS011;10992;48.170;8.596;2022-12-10T01:36:18;56.72;;;31.23;;
21661;SDS011;10992;48.170;8.596;2022-12-10T01:38:47;54.72;;;32.05;;
21661;SDS011;10992;48.170;8.596;2022-12-10T01:41:17;61.40;;;32.42;;
21661;SDS011;10992;48.170;8.596;2022-12-10T01:44:01;55.83;;;30.85;;
21661;SDS011;10992;48.170;8.596;2022-12-10T01:46:56;52.38;;;30.27;;
21661;SDS011;10992;48.170;8.596;2022-12-10T01:49:26;55.00;;;30.90;;
21661;SDS011;10992;48.170;8.596;2022-12-10T01:51:59;60.83;;;32.47;;
21661;SDS011;10992;48.170;8.596;2022-12-10T01:54:37;53.80;;;30.38;;
21661;SDS011;10992;48.170;8.596;2022-12-10T01:59:53;52.00;;;28.95;;
21661;SDS011;10992;48.170;8.596;2022-12-10T02:02:43;49.08;;;28.30;;
21661;SDS011;10992;48.170;8.596;2022-12-10T02:05:25;58.03;;;31.08;;
21661;SDS011;10992;48.170;8.596;2022-12-10T02:16:16;53.85;;;30.17;;
21661;SDS011;10992;48.170;8.596;2022-12-10T02:18:53;54.90;;;29.52;;
21661;SDS011;10992;48.170;8.596;2022-12-10T02:21:28;53.97;;;30.88;;
21661;SDS011;10992;48.170;8.596;2022-12-10T02:24:02;56.25;;;31.48;;
21661;SDS011;10992;48.170;8.596;2022-12-10T02:26:46;53.13;;;30.52;;
21661;SDS011;10992;48.170;8.596;2022-12-10T02:29:26;58.25;;;30.85;;
21661;SDS011;10992;48.170;8.596;2022-12-10T02:31:55;53.00;;;30.23;;
21661;SDS011;10992;48.170;8.596;2022-12-10T02:34:31;51.85;;;29.67;;
21661;SDS011;10992;48.170;8.596;2022-12-10T02:37:05;60.53;;;32.55;;
21661;SDS011;10992;48.170;8.596;2022-12-10T02:39:43;58.63;;;31.02;;
21661;SDS011;10992;48.170;8.596;2022-12-10T02:42:15;55.00;;;30.75;;
21661;SDS011;10992;48.170;8.596;2022-12-10T02:44:43;51.65;;;28.80;;
21661;SDS011;10992;48.170;8.596;2022-12-10T02:47:13;55.20;;;30.23;;
21661;SDS011;10992;48.170;8.596;2022-12-10T02:49:45;52.70;;;29.77;;
21661;SDS011;10992;48.170;8.596;2022-12-10T02:52:17;51.88;;;30.50;;
21661;SDS011;10992;48.170;8.596;2022-12-10T02:54:49;57.00;;;30.77;;
21661;SDS011;10992;48.170;8.596;2022-12-10T03:08:03;51.78;;;30.52;;
21661;SDS011;10992;48.170;8.596;2022-12-10T03:11:04;52.63;;;30.08;;
21661;SDS011;10992;48.170;8.596;2022-12-10T03:13:37;53.63;;;31.02;;
21661;SDS011;10992;48.170;8.596;2022-12-10T03:16:09;54.75;;;28.80;;
21661;SDS011;10992;48.170;8.596;2022-12-10T03:18:37;58.08;;;30.45;;
21661;SDS011;10992;48.170;8.596;2022-12-10T03:21:05;52.33;;;30.20;;
21661;SDS011;10992;48.170;8.596;2022-12-10T03:23:35;51.85;;;29.13;;
21661;SDS011;10992;48.170;8.596;2022-12-10T03:26:07;56.50;;;29.65;;
21661;SDS011;10992;48.170;8.596;2022-12-10T03:28:37;56.47;;;29.27;;
21661;SDS011;10992;48.170;8.596;2022-12-10T03:31:07;49.70;;;27.60;;
21661;SDS011;10992;48.170;8.596;2022-12-10T03:33:36;76.63;;;32.08;;
21661;SDS011;10992;48.170;8.596;2022-12-10T03:36:04;53.30;;;28.88;;
21661;SDS011;10992;48.170;8.596;2022-12-10T03:38:33;49.40;;;27.60;;
21661;SDS011;10992;48.170;8.596;2022-12-10T03:41:01;57.15;;;28.42;;
21661;SDS011;10992;48.170;8.596;2022-12-10T03:43:28;56.30;;;28.77;;
21661;SDS011;10992;48.170;8.596;2022-12-10T03:45:55;56.88;;;29.55;;
21661;SDS011;10992;48.170;8.596;2022-12-10T03:48:21;54.63;;;28.98;;
21661;SDS011;10992;48.170;8.596;2022-12-10T03:50:48;54.50;;;28.30;;
21661;SDS011;10992;48.170;8.596;2022-12-10T03:53:15;50.65;;;28.23;;
21661;SDS011;10992;48.170;8.596;2022-12-10T03:55:42;56.38;;;30.08;;
21661;SDS011;10992;48.170;8.596;2022-12-10T03:58:09;59.42;;;29.05;;
21661;SDS011;10992;48.170;8.596;2022-12-10T04:00:41;66.85;;;29.65;;
21661;SDS011;10992;48.170;8.596;2022-12-10T04:03:09;57.67;;;29.17;;
21661;SDS011;10992;48.170;8.596;2022-12-10T04:05:36;57.25;;;27.52;;
21661;SDS011;10992;48.170;8.596;2022-12-10T04:08:03;57.80;;;29.75;;
21661;SDS011;10992;48.170;8.596;2022-12-10T04:10:30;56.15;;;28.23;;
21661;SDS011;10992;48.170;8.596;2022-12-10T04:13:02;51.83;;;28.38;;
21661;SDS011;10992;48.170;8.596;2022-12-10T04:15:48;52.63;;;28.95;;
21661;SDS011;10992;48.170;8.596;2022-12-10T04:18:33;66.45;;;29.52;;
21661;SDS011;10992;48.170;8.596;2022-12-10T04:21:00;57.65;;;28.38;;
21661;SDS011;10992;48.170;8.596;2022-12-10T04:23:46;57.50;;;30.52;;
21661;SDS011;10992;48.170;8.596;2022-12-10T04:26:31;53.22;;;28.13;;
21661;SDS011;10992;48.170;8.596;2022-12-10T04:29:27;54.22;;;28.35;;
21661;SDS011;10992;48.170;8.596;2022-12-10T04:31:55;56.70;;;28.13;;
21661;SDS011;10992;48.170;8.596;2022-12-10T04:34:23;49.97;;;26.73;;
21661;SDS011;10992;48.170;8.596;2022-12-10T04:36:51;51.05;;;26.90;;
21661;SDS011;10992;48.170;8.596;2022-12-10T04:39:18;54.70;;;28.42;;
21661;SDS011;10992;48.170;8.596;2022-12-10T04:41:46;51.80;;;26.73;;
21661;SDS011;10992;48.170;8.596;2022-12-10T04:44:15;50.17;;;27.33;;
21661;SDS011;10992;48.170;8.596;2022-12-10T04:46:43;49.95;;;27.23;;
21661;SDS011;10992;48.170;8.596;2022-12-10T04:49:10;75.15;;;29.17;;
21661;SDS011;10992;48.170;8.596;2022-12-10T04:51:38;53.38;;;28.10;;
21661;SDS011;10992;48.170;8.596;2022-12-10T04:54:06;51.20;;;27.40;;
21661;SDS011;10992;48.170;8.596;2022-12-10T04:56:33;54.35;;;28.73;;
21661;SDS011;10992;48.170;8.596;2022-12-10T04:59:01;58.40;;;27.90;;
21661;SDS011;10992;48.170;8.596;2022-12-10T05:01:29;58.70;;;29.88;;
21661;SDS011;10992;48.170;8.596;2022-12-10T05:04:00;52.65;;;28.00;;
21661;SDS011;10992;48.170;8.596;2022-12-10T05:06:28;82.55;;;30.80;;
21661;SDS011;10992;48.170;8.596;2022-12-10T05:08:56;61.58;;;30.92;;
21661;SDS011;10992;48.170;8.596;2022-12-10T05:11:24;58.83;;;29.48;;
21661;SDS011;10992;48.170;8.596;2022-12-10T05:13:53;54.08;;;29.92;;
21661;SDS011;10992;48.170;8.596;2022-12-10T05:16:22;51.15;;;28.77;;
21661;SDS011;10992;48.170;8.596;2022-12-10T05:18:52;58.35;;;28.90;;
21661;SDS011;10992;48.170;8.596;2022-12-10T05:21:20;57.33;;;28.75;;
21661;SDS011;10992;48.170;8.596;2022-12-10T05:23:49;49.40;;;27.52;;
21661;SDS011;10992;48.170;8.596;2022-12-10T05:26:19;47.97;;;27.45;;
21661;SDS011;10992;48.170;8.596;2022-12-10T05:28:48;59.50;;;30.42;;
21661;SDS011;10992;48.170;8.596;2022-12-10T05:31:18;59.70;;;29.50;;
21661;SDS011;10992;48.170;8.596;2022-12-10T05:33:50;57.33;;;30.27;;
21661;SDS011;10992;48.170;8.596;2022-12-10T05:36:20;59.38;;;30.40;;
21661;SDS011;10992;48.170;8.596;2022-12-10T05:38:50;50.53;;;28.38;;
21661;SDS011;10992;48.170;8.596;2022-12-10T05:41:18;51.65;;;27.55;;
21661;SDS011;10992;48.170;8.596;2022-12-10T05:43:53;50.40;;;28.15;;
21661;SDS011;10992;48.170;8.596;2022-12-10T05:46:22;50.78;;;27.00;;
21661;SDS011;10992;48.170;8.596;2022-12-10T05:48:54;51.95;;;28.67;;
21661;SDS011;10992;48.170;8.596;2022-12-10T05:51:22;53.47;;;28.40;;
21661;SDS011;10992;48.170;8.596;2022-12-10T05:53:53;55.58;;;29.45;;
21661;SDS011;10992;48.170;8.596;2022-12-10T05:56:22;51.00;;;27.65;;
21661;SDS011;10992;48.170;8.596;2022-12-10T05:58:52;57.03;;;27.95;;
21661;SDS011;10992;48.170;8.596;2022-12-10T06:01:22;50.17;;;27.58;;
21661;SDS011;10992;48.170;8.596;2022-12-10T06:03:51;50.05;;;26.55;;
21661;SDS011;10992;48.170;8.596;2022-12-10T06:06:22;55.03;;;27.13;;
21661;SDS011;10992;48.170;8.596;2022-12-10T06:08:54;52.60;;;28.25;;
21661;SDS011;10992;48.170;8.596;2022-12-10T06:11:22;55.05;;;26.95;;
21661;SDS011;10992;48.170;8.596;2022-12-10T06:13:49;55.88;;;28.13;;
21661;SDS011;10992;48.170;8.596;2022-12-10T06:16:22;50.88;;;27.08;;
21661;SDS011;10992;48.170;8.596;2022-12-10T06:18:49;50.85;;;27.98;;
21661;SDS011;10992;48.170;8.596;2022-12-10T06:21:17;50.08;;;27.95;;
21661;SDS011;10992;48.170;8.596;2022-12-10T06:23:45;52.63;;;28.05;;
21661;SDS011;10992;48.170;8.596;2022-12-10T06:26:14;53.10;;;28.63;;
21661;SDS011;10992;48.170;8.596;2022-12-10T06:28:45;50.55;;;27.73;;
21661;SDS011;10992;48.170;8.596;2022-12-10T06:31:13;62.47;;;27.88;;
21661;SDS011;10992;48.170;8.596;2022-12-10T06:33:41;55.35;;;27.92;;
21661;SDS011;10992;48.170;8.596;2022-12-10T06:36:08;62.15;;;29.40;;
21661;SDS011;10992;48.170;8.596;2022-12-10T06:38:37;56.90;;;29.17;;
21661;SDS011;10992;48.170;8.596;2022-12-10T06:41:04;56.72;;;29.35;;
21661;SDS011;10992;48.170;8.596;2022-12-10T06:43:32;53.47;;;28.75;;
21661;SDS011;10992;48.170;8.596;2022-12-10T06:46:00;57.70;;;28.92;;
21661;SDS011;10992;48.170;8.596;2022-12-10T06:48:31;56.15;;;28.25;;
21661;SDS011;10992;48.170;8.596;2022-12-10T06:50:59;56.08;;;29.98;;
21661;SDS011;10992;48.170;8.596;2022-12-10T06:53:26;50.53;;;27.48;;
21661;SDS011;10992;48.170;8.596;2022-12-10T06:55:53;55.40;;;28.50;;
21661;SDS011;10992;48.170;8.596;2022-12-10T06:58:20;54.72;;;27.90;;
21661;SDS011;10992;48.170;8.596;2022-12-10T07:00:47;62.00;;;30.55;;
21661;SDS011;10992;48.170;8.596;2022-12-10T07:03:14;63.10;;;30.33;;
21661;SDS011;10992;48.170;8.596;2022-12-10T07:05:40;59.20;;;28.77;;
21661;SDS011;10992;48.170;8.596;2022-12-10T07:08:07;59.08;;;29.92;;
21661;SDS011;10992;48.170;8.596;2022-12-10T07:10:35;59.45;;;29.73;;
21661;SDS011;10992;48.170;8.596;2022-12-10T07:13:03;53.97;;;28.27;;
21661;SDS011;10992;48.170;8.596;2022-12-10T07:15:30;60.83;;;29.10;;
21661;SDS011;10992;48.170;8.596;2022-12-10T07:17:57;53.42;;;28.05;;
21661;SDS011;10992;48.170;8.596;2022-12-10T07:20:24;52.63;;;27.90;;
21661;SDS011;10992;48.170;8.596;2022-12-10T07:22:51;57.53;;;27.83;;
21661;SDS011;10992;48.170;8.596;2022-12-10T07:25:18;53.72;;;27.75;;
21661;SDS011;10992;48.170;8.596;2022-12-10T07:27:45;62.40;;;29.90;;
21661;SDS011;10992;48.170;8.596;2022-12-10T07:30:11;54.92;;;29.02;;
21661;SDS011;10992;48.170;8.596;2022-12-10T07:32:39;53.20;;;27.80;;
21661;SDS011;10992;48.170;8.596;2022-12-10T07:35:05;57.10;;;28.83;;
21661;SDS011;10992;48.170;8.596;2022-12-10T07:37:33;53.13;;;28.65;;
21661;SDS011;10992;48.170;8.596;2022-12-10T07:40:00;58.90;;;30.48;;
21661;SDS011;10992;48.170;8.596;2022-12-10T07:42:26;59.05;;;30.88;;
21661;SDS011;10992;48.170;8.596;2022-12-10T07:44:54;54.55;;;29.02;;
21661;SDS011;10992;48.170;8.596;2022-12-10T07:47:21;54.95;;;29.23;;
21661;SDS011;10992;48.170;8.596;2022-12-10T07:49:48;55.53;;;29.27;;
21661;SDS011;10992;48.170;8.596;2022-12-10T07:52:15;54.88;;;29.02;;
21661;SDS011;10992;48.170;8.596;2022-12-10T07:54:42;56.33;;;30.92;;
21661;SDS011;10992;48.170;8.596;2022-12-10T07:57:10;56.72;;;29.75;;
21661;SDS011;10992;48.170;8.596;2022-12-10T07:59:37;61.03;;;29.92;;
21661;SDS011;10992;48.170;8.596;2022-12-10T08:02:04;54.78;;;27.13;;
21661;SDS011;10992;48.170;8.596;2022-12-10T08:04:34;55.78;;;30.05;;
21661;SDS011;10992;48.170;8.596;2022-12-10T08:07:01;61.10;;;32.38;;
21661;SDS011;10992;48.170;8.596;2022-12-10T08:09:28;55.13;;;29.30;;
21661;SDS011;10992;48.170;8.596;2022-12-10T08:11:55;54.05;;;28.52;;
21661;SDS011;10992;48.170;8.596;2022-12-10T08:14:22;52.42;;;28.85;;
21661;SDS011;10992;48.170;8.596;2022-12-10T08:16:50;50.83;;;28.75;;
21661;SDS011;10992;48.170;8.596;2022-12-10T08:19:16;46.88;;;28.17;;
21661;SDS011;10992;48.170;8.596;2022-12-10T08:21:50;52.47;;;28.17;;
21661;SDS011;10992;48.170;8.596;2022-12-10T08:24:16;53.58;;;29.40;;
21661;SDS011;10992;48.170;8.596;2022-12-10T08:26:43;50.88;;;27.52;;
21661;SDS011;10992;48.170;8.596;2022-12-10T08:29:10;45.72;;;25.80;;
21661;SDS011;10992;48.170;8.596;2022-12-10T08:31:37;47.22;;;27.60;;
21661;SDS011;10992;48.170;8.596;2022-12-10T08:34:09;52.22;;;29.67;;
21661;SDS011;10992;48.170;8.596;2022-12-10T08:36:41;49.25;;;26.05;;
21661;SDS011;10992;48.170;8.596;2022-12-10T08:39:09;45.33;;;26.00;;
21661;SDS011;10992;48.170;8.596;2022-12-10T08:41:36;48.28;;;28.95;;
21661;SDS011;10992;48.170;8.596;2022-12-10T08:44:03;46.30;;;26.08;;
21661;SDS011;10992;48.170;8.596;2022-12-10T08:46:30;45.28;;;26.55;;
21661;SDS011;10992;48.170;8.596;2022-12-10T08:48:57;42.58;;;24.58;;
21661;SDS011;10992;48.170;8.596;2022-12-10T08:51:25;44.97;;;24.80;;
21661;SDS011;10992;48.170;8.596;2022-12-10T08:53:52;45.42;;;25.15;;
21661;SDS011;10992;48.170;8.596;2022-12-10T08:56:19;43.00;;;25.83;;
21661;SDS011;10992;48.170;8.596;2022-12-10T08:58:46;42.67;;;25.88;;
21661;SDS011;10992;48.170;8.596;2022-12-10T09:01:15;44.60;;;24.88;;
21661;SDS011;10992;48.170;8.596;2022-12-10T09:03:43;48.70;;;26.65;;
21661;SDS011;10992;48.170;8.596;2022-12-10T09:06:12;46.25;;;26.58;;
21661;SDS011;10992;48.170;8.596;2022-12-10T09:08:40;44.60;;;26.13;;
21661;SDS011;10992;48.170;8.596;2022-12-10T09:11:08;43.72;;;25.92;;
21661;SDS011;10992;48.170;8.596;2022-12-10T09:13:39;41.33;;;25.83;;
21661;SDS011;10992;48.170;8.596;2022-12-10T09:16:06;44.65;;;27.13;;
21661;SDS011;10992;48.170;8.596;2022-12-10T09:18:34;50.35;;;28.63;;
21661;SDS011;10992;48.170;8.596;2022-12-10T09:21:05;41.55;;;27.23;;
21661;SDS011;10992;48.170;8.596;2022-12-10T09:23:34;38.92;;;26.40;;
21661;SDS011;10992;48.170;8.596;2022-12-10T09:26:04;37.60;;;24.25;;
21661;SDS011;10992;48.170;8.596;2022-12-10T09:28:33;35.78;;;23.50;;
21661;SDS011;10992;48.170;8.596;2022-12-10T09:31:01;36.00;;;23.75;;
21661;SDS011;10992;48.170;8.596;2022-12-10T09:33:39;37.67;;;25.30;;
21661;SDS011;10992;48.170;8.596;2022-12-10T09:36:07;39.05;;;25.48;;
21661;SDS011;10992;48.170;8.596;2022-12-10T09:38:36;39.17;;;24.17;;
21661;SDS011;10992;48.170;8.596;2022-12-10T09:41:27;35.97;;;24.55;;
21661;SDS011;10992;48.170;8.596;2022-12-10T09:47:15;37.67;;;25.52;;
21661;SDS011;10992;48.170;8.596;2022-12-10T09:49:55;38.63;;;25.48;;
21661;SDS011;10992;48.170;8.596;2022-12-10T09:52:46;39.55;;;26.98;;
21661;SDS011;10992;48.170;8.596;2022-12-10T09:55:20;41.75;;;28.05;;
21661;SDS011;10992;48.170;8.596;2022-12-10T09:58:05;39.72;;;26.67;;
21661;SDS011;10992;48.170;8.596;2022-12-10T10:00:40;39.88;;;26.33;;
21661;SDS011;10992;48.170;8.596;2022-12-10T10:03:12;38.33;;;26.15;;
21661;SDS011;10992;48.170;8.596;2022-12-10T10:05:41;37.90;;;25.83;;
21661;SDS011;10992;48.170;8.596;2022-12-10T10:11:04;37.72;;;26.85;;
21661;SDS011;10992;48.170;8.596;2022-12-10T10:13:38;37.92;;;24.67;;
21661;SDS011;10992;48.170;8.596;2022-12-10T10:16:30;39.30;;;26.27;;
21661;SDS011;10992;48.170;8.596;2022-12-10T10:19:04;38.50;;;26.88;;
21661;SDS011;10992;48.170;8.596;2022-12-10T10:21:46;39.72;;;25.02;;
21661;SDS011;10992;48.170;8.596;2022-12-10T10:24:16;39.22;;;24.67;;
21661;SDS011;10992;48.170;8.596;2022-12-10T10:26:45;38.25;;;25.17;;
21661;SDS011;10992;48.170;8.596;2022-12-10T10:29:14;39.55;;;24.92;;
21661;SDS011;10992;48.170;8.596;2022-12-10T10:31:44;35.80;;;23.88;;
21661;SDS011;10992;48.170;8.596;2022-12-10T10:34:12;35.88;;;24.40;;
21661;SDS011;10992;48.170;8.596;2022-12-10T10:36:52;37.30;;;22.95;;
21661;SDS011;10992;48.170;8.596;2022-12-10T10:39:30;36.58;;;24.25;;
21661;SDS011;10992;48.170;8.596;2022-12-10T10:41:58;33.15;;;22.95;;
21661;SDS011;10992;48.170;8.596;2022-12-10T10:44:33;35.88;;;24.00;;
21661;SDS011;10992;48.170;8.596;2022-12-10T10:47:02;34.42;;;24.25;;
21661;SDS011;10992;48.170;8.596;2022-12-10T10:50:00;32.85;;;22.70;;
21661;SDS011;10992;48.170;8.596;2022-12-10T10:52:30;32.97;;;20.60;;
21661;SDS011;10992;48.170;8.596;2022-12-10T10:55:04;31.63;;;20.40;;
21661;SDS011;10992;48.170;8.596;2022-12-10T10:57:34;28.27;;;19.55;;
21661;SDS011;10992;48.170;8.596;2022-12-10T11:00:05;28.23;;;19.50;;
21661;SDS011;10992;48.170;8.596;2022-12-10T11:02:44;29.35;;;18.80;;
21661;SDS011;10992;48.170;8.596;2022-12-10T11:05:19;32.53;;;20.55;;
21661;SDS011;10992;48.170;8.596;2022-12-10T11:07:56;32.08;;;19.63;;
21661;SDS011;10992;48.170;8.596;2022-12-10T11:10:27;28.33;;;18.40;;
21661;SDS011;10992;48.170;8.596;2022-12-10T11:12:59;26.90;;;17.77;;
21661;SDS011;10992;48.170;8.596;2022-12-10T11:15:44;25.45;;;16.92;;
21661;SDS011;10992;48.170;8.596;2022-12-10T11:21:06;20.35;;;14.10;;
21661;SDS011;10992;48.170;8.596;2022-12-10T11:23:49;21.38;;;16.05;;
21661;SDS011;10992;48.170;8.596;2022-12-10T11:48:24;22.55;;;16.60;;
21661;SDS011;10992;48.170;8.596;2022-12-10T11:51:02;24.25;;;16.33;;
21661;SDS011;10992;48.170;8.596;2022-12-10T11:54:14;22.60;;;15.52;;
21661;SDS011;10992;48.170;8.596;2022-12-10T11:56:52;22.95;;;15.25;;
21661;SDS011;10992;48.170;8.596;2022-12-10T12:05:55;19.92;;;13.65;;
21661;SDS011;10992;48.170;8.596;2022-12-10T12:11:41;23.27;;;15.55;;
21661;SDS011;10992;48.170;8.596;2022-12-10T12:14:19;27.95;;;18.38;;
21661;SDS011;10992;48.170;8.596;2022-12-10T12:17:03;22.70;;;15.02;;
21661;SDS011;10992;48.170;8.596;2022-12-10T12:19:37;22.45;;;14.82;;
21661;SDS011;10992;48.170;8.596;2022-12-10T12:22:15;22.15;;;15.52;;
21661;SDS011;10992;48.170;8.596;2022-12-10T12:24:49;22.67;;;15.57;;
21661;SDS011;10992;48.170;8.596;2022-12-10T12:27:33;25.48;;;15.90;;
21661;SDS011;10992;48.170;8.596;2022-12-10T12:30:06;20.63;;;15.82;;
21661;SDS011;10992;48.170;8.596;2022-12-10T12:35:22;24.35;;;15.15;;
21661;SDS011;10992;48.170;8.596;2022-12-10T12:38:01;23.23;;;14.68;;
21661;SDS011;10992;48.170;8.596;2022-12-10T12:40:50;20.55;;;14.27;;
21661;SDS011;10992;48.170;8.596;2022-12-10T12:46:04;21.98;;;15.23;;
21661;SDS011;10992;48.170;8.596;2022-12-10T12:51:32;30.15;;;19.70;;
21661;SDS011;10992;48.170;8.596;2022-12-10T12:54:14;31.67;;;20.67;;
21661;SDS011;10992;48.170;8.596;2022-12-10T13:05:11;28.67;;;19.20;;
21661;SDS011;10992;48.170;8.596;2022-12-10T13:07:44;26.65;;;19.02;;
21661;SDS011;10992;48.170;8.596;2022-12-10T13:10:50;30.42;;;20.52;;
21661;SDS011;10992;48.170;8.596;2022-12-10T13:13:37;31.80;;;19.48;;
21661;SDS011;10992;48.170;8.596;2022-12-10T13:16:33;26.27;;;18.92;;
21661;SDS011;10992;48.170;8.596;2022-12-10T13:22:09;25.95;;;18.70;;
21661;SDS011;10992;48.170;8.596;2022-12-10T13:37:36;26.50;;;16.20;;
21661;SDS011;10992;48.170;8.596;2022-12-10T13:49:05;24.25;;;16.25;;
21661;SDS011;10992;48.170;8.596;2022-12-10T13:52:26;26.42;;;17.48;;
21661;SDS011;10992;48.170;8.596;2022-12-10T14:00:09;19.50;;;12.95;;
21661;SDS011;10992;48.170;8.596;2022-12-10T14:08:15;20.52;;;12.77;;
21661;SDS011;10992;48.170;8.596;2022-12-10T14:10:46;20.70;;;13.68;;
21661;SDS011;10992;48.170;8.596;2022-12-10T14:13:15;19.98;;;13.45;;
21661;SDS011;10992;48.170;8.596;2022-12-10T14:15:47;20.67;;;14.52;;
21661;SDS011;10992;48.170;8.596;2022-12-10T14:18:21;19.60;;;14.05;;
21661;SDS011;10992;48.170;8.596;2022-12-10T14:20:51;22.60;;;13.60;;
21661;SDS011;10992;48.170;8.596;2022-12-10T14:23:26;18.50;;;13.43;;
21661;SDS011;10992;48.170;8.596;2022-12-10T14:26:16;22.08;;;14.35;;
21661;SDS011;10992;48.170;8.596;2022-12-10T14:28:49;20.85;;;14.40;;
21661;SDS011;10992;48.170;8.596;2022-12-10T14:31:31;21.75;;;15.25;;
21661;SDS011;10992;48.170;8.596;2022-12-10T14:34:07;24.05;;;15.15;;
21661;SDS011;10992;48.170;8.596;2022-12-10T14:36:43;22.52;;;15.95;;
21661;SDS011;10992;48.170;8.596;2022-12-10T14:39:13;21.27;;;14.68;;
21661;SDS011;10992;48.170;8.596;2022-12-10T14:41:46;17.75;;;13.20;;
21661;SDS011;10992;48.170;8.596;2022-12-10T14:44:15;19.17;;;13.38;;
21661;SDS011;10992;48.170;8.596;2022-12-10T14:46:43;17.42;;;12.73;;
21661;SDS011;10992;48.170;8.596;2022-12-10T14:49:17;20.33;;;13.10;;
21661;SDS011;10992;48.170;8.596;2022-12-10T14:51:51;16.80;;;12.70;;
21661;SDS011;10992;48.170;8.596;2022-12-10T14:56:57;21.02;;;13.90;;
21661;SDS011;10992;48.170;8.596;2022-12-10T14:59:31;22.65;;;14.43;;
21661;SDS011;10992;48.170;8.596;2022-12-10T15:02:41;23.00;;;14.05;;
21661;SDS011;10992;48.170;8.596;2022-12-10T15:05:02;14.80;;;10.23;;
21661;SDS011;10992;48.170;8.596;2022-12-10T15:07:36;14.48;;;10.95;;
21661;SDS011;10992;48.170;8.596;2022-12-10T15:10:04;18.60;;;12.45;;
21661;SDS011;10992;48.170;8.596;2022-12-10T15:12:47;15.60;;;10.88;;
21661;SDS011;10992;48.170;8.596;2022-12-10T15:15:19;14.75;;;10.55;;
21661;SDS011;10992;48.170;8.596;2022-12-10T15:18:03;18.42;;;11.88;;
21661;SDS011;10992;48.170;8.596;2022-12-10T15:20:31;17.83;;;11.57;;
21661;SDS011;10992;48.170;8.596;2022-12-10T15:23:18;15.95;;;11.70;;
21661;SDS011;10992;48.170;8.596;2022-12-10T15:28:28;15.95;;;10.93;;
21661;SDS011;10992;48.170;8.596;2022-12-10T15:31:09;15.27;;;10.85;;
21661;SDS011;10992;48.170;8.596;2022-12-10T15:33:47;17.20;;;11.40;;
21661;SDS011;10992;48.170;8.596;2022-12-10T15:36:28;15.98;;;10.38;;
21661;SDS011;10992;48.170;8.596;2022-12-10T15:38:57;17.33;;;12.15;;
21661;SDS011;10992;48.170;8.596;2022-12-10T15:49:29;18.08;;;11.45;;
21661;SDS011;10992;48.170;8.596;2022-12-10T15:51:56;15.60;;;11.55;;
21661;SDS011;10992;48.170;8.596;2022-12-10T15:54:34;20.38;;;13.52;;
21661;SDS011;10992;48.170;8.596;2022-12-10T15:57:16;18.10;;;13.13;;
21661;SDS011;10992;48.170;8.596;2022-12-10T15:59:48;21.80;;;14.52;;
21661;SDS011;10992;48.170;8.596;2022-12-10T16:04:47;24.65;;;16.17;;
21661;SDS011;10992;48.170;8.596;2022-12-10T16:07:15;20.10;;;14.35;;
21661;SDS011;10992;48.170;8.596;2022-12-10T16:09:44;21.48;;;12.77;;
21661;SDS011;10992;48.170;8.596;2022-12-10T16:12:12;16.42;;;12.13;;
21661;SDS011;10992;48.170;8.596;2022-12-10T16:14:47;19.38;;;13.38;;
21661;SDS011;10992;48.170;8.596;2022-12-10T16:17:18;22.95;;;16.90;;
21661;SDS011;10992;48.170;8.596;2022-12-10T16:19:45;19.02;;;13.70;;
21661;SDS011;10992;48.170;8.596;2022-12-10T16:22:12;15.80;;;12.60;;
21661;SDS011;10992;48.170;8.596;2022-12-10T16:24:39;18.58;;;12.80;;
21661;SDS011;10992;48.170;8.596;2022-12-10T16:27:12;18.60;;;13.02;;
21661;SDS011;10992;48.170;8.596;2022-12-10T16:29:42;19.92;;;13.15;;
21661;SDS011;10992;48.170;8.596;2022-12-10T16:32:10;17.98;;;13.50;;
21661;SDS011;10992;48.170;8.596;2022-12-10T16:34:38;20.40;;;13.82;;
21661;SDS011;10992;48.170;8.596;2022-12-10T16:37:05;21.67;;;14.35;;
21661;SDS011;10992;48.170;8.596;2022-12-10T16:39:32;18.05;;;12.80;;
21661;SDS011;10992;48.170;8.596;2022-12-10T16:41:59;20.15;;;14.68;;
21661;SDS011;10992;48.170;8.596;2022-12-10T16:44:27;19.63;;;13.32;;
21661;SDS011;10992;48.170;8.596;2022-12-10T16:46:54;20.88;;;14.75;;
21661;SDS011;10992;48.170;8.596;2022-12-10T16:49:21;21.35;;;14.10;;
21661;SDS011;10992;48.170;8.596;2022-12-10T16:51:48;20.88;;;13.90;;
21661;SDS011;10992;48.170;8.596;2022-12-10T16:54:15;23.10;;;14.68;;
21661;SDS011;10992;48.170;8.596;2022-12-10T16:56:41;21.13;;;14.27;;
21661;SDS011;10992;48.170;8.596;2022-12-10T16:59:08;20.48;;;14.30;;